Time;durP1;ratioP1;P1;durP2;ratioP2;P2;SDS_P1;SDS_P2;PMS_P1;PMS_P2;Temp;Humidity;BMP_temperature;BMP_pressure;BME280_temperature;BME280_humidity;BME280_pressure;Samples;Min_cycle;Max_cycle;Signal;HPM_P1;HPM_P2
2022/08/06 00:01:54;;;;;;;14.05;11.30;;;;;;;22.71;68.74;100427.37;1744467;80;26444;-79
2022/08/06 00:04:21;;;;;;;16.80;12.68;;;;;;;22.68;68.85;100429.26;1741828;80;26518;-78
2022/08/06 00:06:48;;;;;;;20.00;13.22;;;;;;;22.65;68.96;100423.79;1749740;80;27442;-77
2022/08/06 00:09:14;;;;;;;15.58;13.03;;;;;;;22.62;68.99;100431.71;1739035;80;25758;-78
2022/08/06 00:11:41;;;;;;;12.07;10.85;;;;;;;22.58;69.11;100426.48;1742148;80;26638;-78
2022/08/06 00:14:08;;;;;;;15.60;11.30;;;;;;;22.57;69.30;100427.02;1733021;80;26588;-78
2022/08/06 00:16:34;;;;;;;13.72;10.50;;;;;;;22.56;69.33;100419.11;1743158;80;25737;-78
2022/08/06 00:19:01;;;;;;;16.20;10.45;;;;;;;22.53;69.35;100420.46;1747094;81;27452;-79
2022/08/06 00:21:27;;;;;;;13.90;10.58;;;;;;;22.51;69.40;100424.55;1740153;80;25765;-79
2022/08/06 00:23:53;;;;;;;12.37;10.53;;;;;;;22.49;69.51;100422.63;1737607;80;25842;-79
2022/08/06 00:26:19;;;;;;;14.38;10.63;;;;;;;22.44;69.50;100415.25;1741486;80;26080;-78
2022/08/06 00:28:46;;;;;;;11.00;9.88;;;;;;;22.40;69.58;100414.14;1736511;80;26515;-78
2022/08/06 00:31:12;;;;;;;13.60;10.93;;;;;;;22.36;69.79;100407.59;1747755;80;28401;-79
2022/08/06 00:33:41;;;;;;;17.23;10.82;;;;;;;22.34;69.87;100407.03;1724035;81;26626;-78
2022/08/06 00:36:09;;;;;;;18.15;11.70;;;;;;;22.31;69.92;100406.20;1747565;81;25817;-76
2022/08/06 00:38:35;;;;;;;13.68;11.22;;;;;;;22.29;70.09;100405.64;1740257;80;25855;-78
2022/08/06 00:41:03;;;;;;;13.85;10.65;;;;;;;22.28;70.11;100407.55;1746119;81;25914;-78
2022/08/06 00:43:29;;;;;;;12.45;10.32;;;;;;;22.26;70.13;100402.11;1745388;80;27049;-77
2022/08/06 00:45:56;;;;;;;12.68;10.55;;;;;;;22.22;70.22;100409.98;1736547;80;25790;-78
2022/08/06 00:48:22;;;;;;;13.58;11.95;;;;;;;22.18;70.32;100412.98;1737589;80;25624;-78
2022/08/06 00:50:48;;;;;;;14.30;11.35;;;;;;;22.16;70.39;100408.34;1738915;80;26624;-78
2022/08/06 00:53:14;;;;;;;13.05;11.50;;;;;;;22.12;70.38;100413.22;1740389;80;25732;-77
2022/08/06 00:55:41;;;;;;;14.47;11.88;;;;;;;22.06;70.54;100415.66;1739739;80;27642;-79
2022/08/06 00:58:07;;;;;;;14.80;11.38;;;;;;;21.99;70.55;100416.44;1737619;80;26445;-77
2022/08/06 01:00:34;;;;;;;13.58;10.93;;;;;;;21.97;70.66;100418.61;1736932;80;26014;-77
2022/08/06 01:03:01;;;;;;;17.20;11.60;;;;;;;21.93;70.71;100423.78;1734235;80;26570;-79
2022/08/06 01:05:27;;;;;;;14.38;11.00;;;;;;;21.90;70.82;100426.20;1745509;80;26459;-79
2022/08/06 01:07:55;;;;;;;17.65;11.38;;;;;;;21.84;70.91;100434.08;1742062;80;27481;-77
2022/08/06 01:10:22;;;;;;;20.88;10.55;;;;;;;21.79;71.05;100434.84;1734366;80;25882;-79
2022/08/06 01:12:49;;;;;;;14.53;10.85;;;;;;;21.76;71.13;100432.66;1748066;80;26464;-80
2022/08/06 01:15:15;;;;;;;14.50;11.73;;;;;;;21.73;71.26;100431.81;1736841;80;26086;-78
2022/08/06 01:17:59;;;;;;;13.45;12.10;;;;;;;21.71;71.35;100441.33;1738721;80;25303;-78
2022/08/06 01:21:04;;;;;;;14.15;11.18;;;;;;;21.69;71.43;100438.88;1736773;80;27450;-79
2022/08/06 01:24:08;;;;;;;12.85;10.65;;;;;;;21.67;71.50;100443.77;1713660;81;25867;-77
2022/08/06 01:26:52;;;;;;;12.03;10.80;;;;;;;21.61;71.58;100453.01;1721881;81;25780;-76
2022/08/06 01:29:36;;;;;;;12.70;10.75;;;;;;;21.55;71.82;100450.51;1739154;80;25778;-78
2022/08/06 01:32:20;;;;;;;13.88;11.12;;;;;;;21.51;71.90;100456.47;1735470;80;25967;-76
2022/08/06 01:35:04;;;;;;;13.83;11.40;;;;;;;21.46;72.04;100451.00;1744483;80;27447;-76
2022/08/06 01:37:55;;;;;;;13.38;10.80;;;;;;;21.49;72.36;100450.46;1740119;80;25860;-77
2022/08/06 01:40:29;;;;;;;15.35;11.35;;;;;;;21.47;72.44;100451.27;1745840;80;26382;-78
2022/08/06 01:43:00;;;;;;;15.15;10.70;;;;;;;21.46;72.51;100458.34;1735466;80;25550;-77
2022/08/06 01:45:31;;;;;;;13.68;11.30;;;;;;;21.45;72.75;100450.70;1735565;80;25767;-78
2022/08/06 01:48:02;;;;;;;14.13;11.10;;;;;;;21.43;72.74;100447.95;1742543;81;28302;-76
2022/08/06 01:50:33;;;;;;;16.23;11.65;;;;;;;21.38;72.91;100454.19;1745670;81;26645;-78
2022/08/06 01:53:03;;;;;;;13.48;10.72;;;;;;;21.32;72.93;100454.44;1736865;80;25748;-77
2022/08/06 01:55:35;;;;;;;15.50;11.78;;;;;;;21.27;73.06;100449.77;1737580;80;25777;-76
2022/08/06 01:58:03;;;;;;;13.98;11.33;;;;;;;21.25;73.20;100462.00;1741987;80;25740;-77
2022/08/06 02:00:32;;;;;;;16.97;11.60;;;;;;;21.23;73.25;100463.63;1740405;80;28267;-76
2022/08/06 02:03:04;;;;;;;14.33;11.50;;;;;;;21.20;73.34;100463.31;1742596;80;26451;-76
2022/08/06 02:05:32;;;;;;;15.88;11.75;;;;;;;21.18;73.56;100466.83;1741353;80;26617;-77
2022/08/06 02:08:00;;;;;;;14.55;11.33;;;;;;;21.13;73.65;100463.52;1748050;80;25920;-77
2022/08/06 02:10:30;;;;;;;12.35;10.88;;;;;;;21.09;73.95;100465.13;1734613;81;25758;-76
2022/08/06 02:12:58;;;;;;;13.62;11.35;;;;;;;21.02;74.41;100465.83;1742695;80;28441;-77
2022/08/06 02:15:29;;;;;;;14.03;11.25;;;;;;;20.96;74.64;100457.34;1742418;80;26411;-76
2022/08/06 02:17:59;;;;;;;15.35;11.57;;;;;;;20.92;74.93;100456.75;1737458;80;25780;-76
2022/08/06 02:20:33;;;;;;;13.40;11.65;;;;;;;20.89;75.37;100459.47;1738046;80;31353;-76
2022/08/06 02:23:03;;;;;;;15.68;11.25;;;;;;;20.84;75.68;100454.50;1748831;80;25809;-76
2022/08/06 02:25:31;;;;;;;16.23;11.45;;;;;;;20.81;75.92;100457.75;1730612;80;28460;-77
2022/08/06 02:28:00;;;;;;;13.68;11.53;;;;;;;20.81;76.16;100458.55;1745190;80;26692;-78
2022/08/06 02:30:35;;;;;;;13.98;11.43;;;;;;;20.79;76.41;100452.54;1746887;80;25947;-78
2022/08/06 02:33:03;;;;;;;19.40;11.33;;;;;;;20.78;76.67;100457.16;1736624;80;26736;-76
2022/08/06 02:35:36;;;;;;;18.05;11.30;;;;;;;20.81;76.72;100463.20;1744316;80;25819;-78
2022/08/06 02:38:08;;;;;;;16.67;11.50;;;;;;;20.82;76.99;100465.66;1750295;81;27206;-78
2022/08/06 02:40:48;;;;;;;16.95;10.98;;;;;;;20.79;77.13;100463.43;1752720;81;25504;-77
2022/08/06 02:43:22;;;;;;;12.07;10.70;;;;;;;20.77;77.17;100475.12;1743808;81;25815;-78
2022/08/06 02:45:54;;;;;;;16.93;11.85;;;;;;;20.76;77.63;100474.28;1721098;81;25946;-79
2022/08/06 02:48:44;;;;;;;14.20;11.50;;;;;;;20.74;77.84;100471.00;1726947;81;26003;-78
2022/08/06 02:51:16;;;;;;;10.82;9.50;;;;;;;20.75;77.90;100480.83;1696383;83;27445;-75
2022/08/06 02:53:48;;;;;;;13.60;10.08;;;;;;;20.75;78.38;100488.16;1699081;82;25923;-78
2022/08/06 02:56:15;;;;;;;19.60;11.05;;;;;;;20.74;78.56;100493.34;1712721;82;25782;-76
2022/08/06 02:58:48;;;;;;;16.25;10.43;;;;;;;20.73;78.54;100493.88;1706966;82;26542;-76
2022/08/06 03:01:19;;;;;;;13.43;10.25;;;;;;;20.75;78.64;100497.16;1712285;82;25894;-77
2022/08/06 03:03:50;;;;;;;15.03;11.50;;;;;;;20.76;79.04;100485.17;1729324;81;28140;-77
2022/08/06 03:06:19;;;;;;;12.93;11.53;;;;;;;20.73;79.19;100488.43;1726280;81;26568;-77
2022/08/06 03:08:46;;;;;;;15.00;10.90;;;;;;;20.72;79.24;100495.50;1717613;81;25778;-77
2022/08/06 03:11:15;;;;;;;13.35;10.93;;;;;;;20.71;79.50;100496.56;1723128;81;26751;-77
2022/08/06 03:13:44;;;;;;;12.60;10.48;;;;;;;20.66;79.47;100498.69;1723268;81;26428;-77
2022/08/06 03:16:12;;;;;;;15.98;10.48;;;;;;;20.65;79.85;100496.23;1726263;81;27459;-77
2022/08/06 03:18:42;;;;;;;15.40;9.85;;;;;;;20.61;80.07;100496.45;1729985;81;25925;-78
2022/08/06 03:21:10;;;;;;;13.77;9.33;;;;;;;20.60;80.22;100499.71;1750805;80;25279;-78
2022/08/06 03:23:38;;;;;;;11.12;9.63;;;;;;;20.60;80.65;100504.32;1700381;81;26570;-77
2022/08/06 03:26:07;;;;;;;12.58;10.23;;;;;;;20.60;80.66;100502.96;1744756;81;25925;-78
2022/08/06 03:28:36;;;;;;;10.35;9.23;;;;;;;20.63;81.01;100511.99;1736122;80;28490;-75
2022/08/06 03:31:03;;;;;;;14.75;9.43;;;;;;;20.61;81.32;100508.70;1739220;80;26570;-76
2022/08/06 03:33:30;;;;;;;14.15;9.28;;;;;;;20.63;81.43;100525.07;1736256;81;25817;-78
2022/08/06 03:36:01;;;;;;;11.73;8.60;;;;;;;20.64;81.60;100520.42;1734616;81;25964;-78
2022/08/06 03:38:35;;;;;;;11.20;9.40;;;;;;;20.64;81.66;100523.98;1741277;81;26605;-77
2022/08/06 03:41:02;;;;;;;12.75;10.75;;;;;;;20.65;81.86;100529.72;1734857;81;28299;-78
2022/08/06 03:43:30;;;;;;;12.50;9.33;;;;;;;20.66;82.29;100540.88;1752692;81;26352;-77
2022/08/06 03:46:02;;;;;;;11.35;8.50;;;;;;;20.66;82.41;100538.69;1722420;81;25575;-76
2022/08/06 03:48:40;;;;;;;13.03;9.65;;;;;;;20.68;82.76;100545.52;1741801;80;26900;-76
2022/08/06 03:51:13;;;;;;;15.65;9.60;;;;;;;20.69;82.92;100545.83;1746287;80;25869;-81
2022/08/06 03:53:42;;;;;;;13.28;8.25;;;;;;;20.70;83.44;100552.06;1733185;80;27536;-76
2022/08/06 03:56:16;;;;;;;10.10;7.85;;;;;;;20.72;83.53;100555.39;1735618;80;25815;-76
2022/08/06 03:58:45;;;;;;;13.45;8.88;;;;;;;20.72;84.04;100560.27;1751297;80;25832;-78
2022/08/06 04:01:16;;;;;;;9.40;8.18;;;;;;;20.76;84.29;100564.12;1741392;80;25903;-77
2022/08/06 04:03:45;;;;;;;10.23;7.87;;;;;;;20.78;84.49;100568.78;1737540;80;25813;-76
2022/08/06 04:06:12;;;;;;;9.73;8.73;;;;;;;20.82;84.80;100570.47;1744242;80;28518;-78
2022/08/06 04:08:40;;;;;;;11.85;8.28;;;;;;;20.87;84.88;100576.52;1712692;81;25785;-78
2022/08/06 04:11:08;;;;;;;8.73;7.92;;;;;;;20.91;85.22;100594.82;1697622;82;25897;-78
2022/08/06 04:13:36;;;;;;;9.45;8.53;;;;;;;20.93;85.36;100600.83;1723754;81;25747;-77
2022/08/06 04:16:04;;;;;;;8.73;7.83;;;;;;;20.97;85.44;100615.58;1733672;80;26046;-77
2022/08/06 04:18:37;;;;;;;11.43;8.68;;;;;;;21.01;85.75;100615.89;1744256;80;27715;-78
2022/08/06 04:21:09;;;;;;;9.33;8.40;;;;;;;21.02;85.84;100610.73;1752780;80;25797;-76
2022/08/06 04:23:37;;;;;;;13.05;9.85;;;;;;;21.02;86.21;100625.16;1733819;81;26161;-77
2022/08/06 04:26:07;;;;;;;10.60;8.55;;;;;;;21.02;86.46;100633.33;1738466;81;26635;-77
2022/08/06 04:28:37;;;;;;;9.00;7.92;;;;;;;21.02;86.68;100633.33;1732859;81;25858;-78
2022/08/06 04:31:04;;;;;;;9.40;8.40;;;;;;;21.02;87.20;100642.86;1705669;81;27442;-76
2022/08/06 04:33:33;;;;;;;15.05;9.73;;;;;;;21.00;87.36;100642.29;1729065;81;25973;-76
2022/08/06 04:36:05;;;;;;;10.08;8.88;;;;;;;21.00;87.43;100649.66;1718451;81;25886;-78
2022/08/06 04:38:32;;;;;;;9.38;8.48;;;;;;;21.06;87.66;100644.59;1735240;81;26646;-77
2022/08/06 04:40:59;;;;;;;9.43;8.50;;;;;;;21.08;87.88;100640.54;1744814;81;25935;-77
2022/08/06 04:43:27;;;;;;;10.78;8.75;;;;;;;21.09;87.99;100642.70;1708879;81;28265;-78
2022/08/06 04:45:54;;;;;;;11.70;9.55;;;;;;;21.08;87.99;100640.54;1751016;81;25713;-77
2022/08/06 04:48:21;;;;;;;13.98;9.78;;;;;;;21.11;88.35;100642.73;1721692;82;26574;-77
2022/08/06 04:50:48;;;;;;;11.12;9.75;;;;;;;21.09;88.36;100649.51;1736999;81;25945;-77
2022/08/06 04:53:19;;;;;;;10.72;9.68;;;;;;;21.08;88.60;100655.52;1720217;81;25865;-77
2022/08/06 04:55:47;;;;;;;14.15;10.58;;;;;;;21.11;88.84;100675.95;1726987;81;27478;-77
2022/08/06 04:58:16;;;;;;;13.18;11.65;;;;;;;21.11;89.12;100684.95;1744551;80;25767;-76
2022/08/06 05:00:45;;;;;;;11.70;10.60;;;;;;;21.07;89.33;100691.98;1722949;81;25837;-77
2022/08/06 05:03:13;;;;;;;12.78;10.35;;;;;;;21.04;89.60;100704.74;1750174;80;25901;-77
2022/08/06 05:06:00;;;;;;;12.13;10.88;;;;;;;21.03;89.80;100702.28;1745944;80;25760;-78
2022/08/06 05:08:30;;;;;;;12.65;11.33;;;;;;;21.00;90.11;100712.30;1717072;80;27443;-76
2022/08/06 05:11:23;;;;;;;11.25;10.15;;;;;;;20.99;90.44;100719.64;1740442;80;26421;-77
2022/08/06 05:13:58;;;;;;;15.28;10.90;;;;;;;21.00;90.60;100741.70;1721454;81;25843;-77
2022/08/06 05:16:26;;;;;;;14.68;10.78;;;;;;;21.02;90.86;100762.70;1727509;81;26933;-76
2022/08/06 05:19:01;;;;;;;11.88;10.80;;;;;;;21.05;90.94;100784.56;1714484;81;25939;-76
2022/08/06 05:21:36;;;;;;;13.68;11.25;;;;;;;21.04;91.21;100788.38;1745242;81;28325;-77
2022/08/06 05:24:04;;;;;;;14.30;12.78;;;;;;;21.02;91.41;100785.05;1747552;81;25846;-78
2022/08/06 05:26:33;;;;;;;14.87;12.82;;;;;;;20.97;91.55;100774.90;1751172;81;25858;-76
2022/08/06 05:29:00;;;;;;;15.08;12.80;;;;;;;20.92;91.91;100769.37;1737567;80;26578;-77
2022/08/06 05:31:34;;;;;;;15.35;13.83;;;;;;;20.85;92.28;100761.91;1744907;80;25774;-77
2022/08/06 05:34:05;;;;;;;16.25;13.08;;;;;;;20.80;92.63;100770.55;1732223;80;28377;-77
2022/08/06 05:36:31;;;;;;;20.17;13.90;;;;;;;20.75;92.95;100776.20;1751228;80;26443;-77
2022/08/06 05:38:57;;;;;;;18.95;12.85;;;;;;;20.71;93.33;100778.31;1737932;80;25318;-78
2022/08/06 05:41:24;;;;;;;15.45;13.90;;;;;;;20.68;93.64;100780.16;1754267;80;25936;-77
2022/08/06 05:43:50;;;;;;;16.23;12.68;;;;;;;20.63;93.88;100774.12;1738058;81;25829;-77
2022/08/06 05:46:21;;;;;;;12.70;11.48;;;;;;;20.59;94.22;100776.22;1736927;80;28788;-77
2022/08/06 05:49:08;;;;;;;;;;;;;;;20.52;94.71;100776.39;1734952;80;25799;-77
2022/08/06 05:52:04;;;;;;;13.18;11.85;;;;;;;20.45;95.08;100787.13;1705359;81;25828;-77
2022/08/06 05:54:51;;;;;;;14.25;11.85;;;;;;;20.38;95.64;100787.84;1733052;80;26093;-76
2022/08/06 05:57:31;;;;;;;13.32;11.78;;;;;;;20.35;96.03;100794.59;1736307;80;25857;-76
2022/08/06 06:00:09;;;;;;;13.68;12.28;;;;;;;20.33;96.23;100799.98;1735187;80;27472;-77
2022/08/06 06:02:40;;;;;;;12.25;10.95;;;;;;;20.31;96.49;100780.37;1714025;81;25804;-77
2022/08/06 06:05:08;;;;;;;12.98;10.68;;;;;;;20.28;96.93;100778.12;1733865;80;26577;-77
2022/08/06 06:07:35;;;;;;;15.00;12.13;;;;;;;20.23;97.25;100772.63;1752196;80;26799;-77
2022/08/06 06:10:05;;;;;;;15.83;13.10;;;;;;;20.19;97.43;100778.23;1743255;80;25822;-78
2022/08/06 06:12:33;;;;;;;15.38;12.18;;;;;;;20.17;97.57;100789.86;1737053;80;27465;-77
2022/08/06 06:15:02;;;;;;;13.03;11.03;;;;;;;20.17;97.82;100789.86;1737188;80;25790;-77
2022/08/06 06:17:43;;;;;;;12.18;10.48;;;;;;;20.15;98.08;100804.24;1732208;80;25832;-76
2022/08/06 06:20:16;;;;;;;10.95;9.88;;;;;;;20.13;98.31;100800.95;1706802;81;25835;-80
2022/08/06 06:23:15;;;;;;;10.45;9.40;;;;;;;20.13;98.52;100814.55;1738266;80;25941;-78
2022/08/06 06:25:53;;;;;;;10.85;9.75;;;;;;;20.10;98.63;100828.12;1740748;80;27477;-76
2022/08/06 06:28:34;;;;;;;11.95;10.75;;;;;;;20.11;98.82;100824.31;1750435;80;26215;-79
2022/08/06 06:31:35;;;;;;;11.75;10.55;;;;;;;20.10;98.97;100829.48;1744005;80;26004;-78
2022/08/06 06:34:18;;;;;;;13.00;9.45;;;;;;;20.09;99.13;100815.58;1740604;80;26709;-77
2022/08/06 06:36:53;;;;;;;12.18;9.55;;;;;;;20.09;99.46;100826.98;1730129;81;26532;-76
2022/08/06 06:39:25;;;;;;;13.15;9.60;;;;;;;20.07;99.45;100822.32;1737336;80;27463;-79
2022/08/06 06:42:00;;;;;;;10.70;9.05;;;;;;;20.07;99.53;100822.32;1735095;80;26037;-77
2022/08/06 06:44:36;;;;;;;9.58;8.35;;;;;;;20.07;99.44;100819.08;1734575;80;25986;-77
2022/08/06 06:47:16;;;;;;;12.73;8.10;;;;;;;20.04;99.46;100811.95;1734903;80;25956;-77
2022/08/06 06:49:47;;;;;;;10.03;7.15;;;;;;;20.00;99.58;100808.34;1708713;81;26477;-77
2022/08/06 06:52:22;;;;;;;8.15;6.90;;;;;;;19.98;99.68;100811.84;1732684;81;28168;-77
2022/08/06 06:54:54;;;;;;;9.78;6.78;;;;;;;19.97;99.88;100806.66;1722406;81;26413;-78
2022/08/06 06:57:26;;;;;;;9.20;5.90;;;;;;;19.97;99.99;100808.02;1734676;81;25950;-78
2022/08/06 06:59:54;;;;;;;8.88;7.05;;;;;;;19.94;99.89;100825.63;1706559;83;26696;-78
2022/08/06 07:02:24;;;;;;;9.65;6.60;;;;;;;19.96;100.00;100845.25;1732060;81;26067;-78
2022/08/06 07:04:53;;;;;;;6.57;5.90;;;;;;;19.98;100.00;100843.64;1731781;82;27505;-77
2022/08/06 07:07:21;;;;;;;6.78;6.08;;;;;;;20.00;100.00;100841.50;1719719;82;26045;-78
2022/08/06 07:09:50;;;;;;;6.28;5.67;;;;;;;20.02;100.00;100833.13;1730623;82;26552;-77
2022/08/06 07:12:19;;;;;;;9.48;4.80;;;;;;;20.02;100.00;100831.20;1733144;81;25894;-78
2022/08/06 07:14:49;;;;;;;6.25;4.45;;;;;;;20.01;100.00;100820.05;1719894;82;25921;-77
2022/08/06 07:17:18;;;;;;;6.67;3.83;;;;;;;19.99;99.98;100810.75;1723766;81;27468;-76
2022/08/06 07:19:48;;;;;;;4.58;3.58;;;;;;;19.96;100.00;100815.34;1719389;81;26045;-81
2022/08/06 07:22:16;;;;;;;4.30;3.50;;;;;;;19.92;100.00;100816.90;1738274;80;25338;-78
2022/08/06 07:24:43;;;;;;;3.47;3.15;;;;;;;19.91;100.00;100826.63;1721875;81;25772;-79
2022/08/06 07:27:12;;;;;;;4.45;3.35;;;;;;;19.92;100.00;100841.37;1729529;82;25791;-78
2022/08/06 07:29:41;;;;;;;7.12;3.33;;;;;;;19.91;100.00;100861.98;1723603;82;27470;-77
2022/08/06 07:32:11;;;;;;;4.15;3.75;;;;;;;19.94;100.00;100882.73;1731371;82;25784;-80
2022/08/06 07:34:39;;;;;;;4.85;3.50;;;;;;;20.02;100.00;100881.52;1732336;82;25665;-80
2022/08/06 07:37:06;;;;;;;4.78;2.87;;;;;;;20.02;100.00;100882.07;1742183;80;26589;-77
2022/08/06 07:39:37;;;;;;;3.60;3.02;;;;;;;20.01;100.00;100871.72;1729316;81;26581;-77
2022/08/06 07:42:08;;;;;;;3.22;2.92;;;;;;;20.02;100.00;100871.20;1726270;82;27466;-79
2022/08/06 07:44:39;;;;;;;5.05;3.77;;;;;;;20.00;100.00;100865.45;1732190;81;25790;-77
2022/08/06 07:47:07;;;;;;;4.12;2.85;;;;;;;20.02;100.00;100880.71;1724739;82;25737;-79
2022/08/06 07:49:42;;;;;;;4.05;2.80;;;;;;;19.99;100.00;100896.97;1737865;81;26375;-79
2022/08/06 07:52:12;;;;;;;4.00;2.90;;;;;;;19.97;100.00;100916.78;1723064;82;25817;-78
2022/08/06 07:54:40;;;;;;;3.00;2.80;;;;;;;19.98;100.00;100927.94;1731074;82;28304;-82
2022/08/06 07:57:07;;;;;;;2.80;2.60;;;;;;;20.00;100.00;100929.88;1731117;82;25927;-79
2022/08/06 07:59:35;;;;;;;3.08;2.77;;;;;;;19.99;99.95;100943.20;1730739;82;25824;-78
2022/08/06 08:02:04;;;;;;;4.90;2.95;;;;;;;19.98;99.90;100944.25;1722010;81;26109;-79
2022/08/06 08:07:16;;;;;;;3.30;2.92;;;;;;;20.00;99.96;100948.91;1723623;81;27470;-79
2022/08/06 08:09:43;;;;;;;3.15;2.22;;;;;;;19.99;99.88;100963.03;1710059;81;26114;-79
2022/08/06 08:12:16;;;;;;;3.02;2.10;;;;;;;19.99;99.97;100979.91;1756143;81;25639;-79
2022/08/06 08:14:48;;;;;;;2.40;2.17;;;;;;;19.95;99.89;100990.41;1744229;81;26761;-79
2022/08/06 08:17:15;;;;;;;3.40;2.40;;;;;;;19.95;100.00;100991.77;1747623;81;25883;-78
2022/08/06 08:19:41;;;;;;;2.58;2.37;;;;;;;19.94;100.00;100990.66;1724177;82;28314;-78
2022/08/06 08:22:15;;;;;;;2.52;2.15;;;;;;;19.93;100.00;101000.70;1737324;80;25819;-78
2022/08/06 08:24:44;;;;;;;2.75;2.10;;;;;;;19.91;100.00;101005.55;1723209;81;25769;-78
2022/08/06 08:27:11;;;;;;;2.50;2.30;;;;;;;19.85;99.74;101011.95;1743063;80;25980;-80
2022/08/06 08:29:41;;;;;;;1.80;1.70;;;;;;;19.81;99.44;101031.69;1739635;80;25322;-78
2022/08/06 08:32:09;;;;;;;2.02;1.82;;;;;;;19.74;98.66;101035.05;1726368;81;27476;-79
2022/08/06 08:34:35;;;;;;;4.17;1.90;;;;;;;19.62;98.50;101046.45;1736000;80;25713;-80
2022/08/06 08:37:03;;;;;;;4.58;1.92;;;;;;;19.54;98.45;101042.73;1742983;80;26367;-81
2022/08/06 08:39:30;;;;;;;2.08;1.85;;;;;;;19.42;98.46;101054.13;1718489;81;26686;-80
2022/08/06 08:42:20;;;;;;;2.35;2.00;;;;;;;19.34;98.40;101072.06;1720427;81;25757;-80
2022/08/06 08:44:49;;;;;;;2.35;1.70;;;;;;;19.27;98.73;101070.80;1710834;81;27463;-79
2022/08/06 08:47:19;;;;;;;3.25;1.70;;;;;;;19.21;98.76;101083.95;1715849;81;26501;-79
2022/08/06 08:49:54;;;;;;;2.20;1.50;;;;;;;19.13;98.50;101078.86;1719884;81;25931;-78
2022/08/06 08:52:27;;;;;;;3.52;1.90;;;;;;;19.03;98.28;101087.55;1733169;80;26384;-81
2022/08/06 08:54:58;;;;;;;5.33;1.98;;;;;;;18.94;98.24;101086.23;1733408;81;26703;-77
2022/08/06 08:57:26;;;;;;;3.90;2.05;;;;;;;18.89;98.59;101096.10;1731779;81;28295;-77
2022/08/06 08:59:53;;;;;;;2.65;1.82;;;;;;;18.86;98.41;101112.86;1713939;81;26544;-79
2022/08/06 09:02:20;;;;;;;3.83;1.50;;;;;;;18.78;98.10;101118.58;1720520;82;25940;-79
2022/08/06 09:04:48;;;;;;;5.58;2.40;;;;;;;18.76;98.47;101116.62;1741138;80;45744;-79
2022/08/06 09:07:15;;;;;;;2.65;2.17;;;;;;;18.73;98.46;101108.44;1749678;81;25928;-78
2022/08/06 09:09:41;;;;;;;2.77;2.17;;;;;;;18.70;98.67;101112.11;1740339;81;27464;-79
2022/08/06 09:12:08;;;;;;;3.42;2.30;;;;;;;18.67;98.92;101118.02;1747282;80;25765;-79
2022/08/06 09:14:36;;;;;;;3.33;1.92;;;;;;;18.68;99.06;101117.77;1755127;81;25844;-79
2022/08/06 09:17:05;;;;;;;2.77;1.50;;;;;;;18.65;98.95;101124.20;1756886;80;25943;-77
2022/08/06 09:19:32;;;;;;;3.12;2.20;;;;;;;18.58;99.08;101130.22;1738760;81;26527;-79
2022/08/06 09:22:00;;;;;;;4.83;2.47;;;;;;;18.50;99.02;101127.26;1746655;81;27440;-83
2022/08/06 09:24:27;;;;;;;4.33;1.90;;;;;;;18.48;99.29;101147.55;1740507;80;25746;-78
2022/08/06 09:27:13;;;;;;;2.72;2.05;;;;;;;18.48;99.54;101157.34;1726756;81;25841;-77
2022/08/06 09:29:54;;;;;;;2.75;2.00;;;;;;;18.48;99.64;101157.34;1708166;81;26569;-78
2022/08/06 09:32:43;;;;;;;4.75;1.70;;;;;;;18.48;99.46;101152.98;1722523;81;25773;-78
2022/08/06 09:35:19;;;;;;;4.12;1.90;;;;;;;18.40;98.94;101154.89;1734358;81;28294;-79
2022/08/06 09:37:47;;;;;;;3.87;2.70;;;;;;;18.41;99.63;101153.82;1722068;80;25812;-79
2022/08/06 09:40:19;;;;;;;1.82;1.40;;;;;;;18.43;99.67;101162.56;1722546;81;26244;-80
2022/08/06 09:42:50;;;;;;;4.15;1.60;;;;;;;18.42;99.11;101163.63;1718701;82;25746;-78
2022/08/06 09:45:19;;;;;;;3.90;1.67;;;;;;;18.39;98.57;101158.64;1707072;81;25908;-78
2022/08/06 09:47:48;;;;;;;3.92;1.47;;;;;;;18.32;98.01;101156.55;1722166;81;28231;-77
2022/08/06 09:50:15;;;;;;;3.42;1.92;;;;;;;18.25;98.12;101167.14;1717728;81;25706;-78
2022/08/06 09:52:41;;;;;;;2.95;1.98;;;;;;;18.21;98.33;101166.77;1720009;81;26002;-77
2022/08/06 09:55:08;;;;;;;4.45;2.20;;;;;;;18.24;98.69;101162.23;1723308;81;25838;-79
2022/08/06 09:57:45;;;;;;;3.20;1.70;;;;;;;18.22;98.17;101167.60;1742581;81;25892;-79
2022/08/06 10:00:26;;;;;;;3.87;2.05;;;;;;;18.21;98.47;101173.55;1725826;81;27523;-79
2022/08/06 10:03:08;;;;;;;3.27;1.70;;;;;;;18.22;98.27;101181.16;1724297;81;25804;-78
2022/08/06 10:05:35;;;;;;;4.08;2.12;;;;;;;18.18;98.20;101171.27;1726680;81;26342;-78
2022/08/06 10:08:13;;;;;;;3.85;1.90;;;;;;;18.18;98.10;101181.27;1727452;81;26571;-78
2022/08/06 10:10:51;;;;;;;2.17;1.72;;;;;;;18.18;98.45;101183.47;1735451;80;25888;-80
2022/08/06 10:13:26;;;;;;;2.72;1.67;;;;;;;18.21;98.47;101183.03;1736363;81;28363;-78
2022/08/06 10:15:57;;;;;;;4.37;2.00;;;;;;;18.20;97.78;101183.23;1734522;81;25892;-79
2022/08/06 10:18:40;;;;;;;5.15;2.27;;;;;;;18.15;97.94;101202.91;1737772;81;25776;-79
2022/08/06 10:21:11;;;;;;;3.35;1.80;;;;;;;18.13;97.96;101207.73;1718209;81;26563;-79
2022/08/06 10:23:40;;;;;;;3.85;1.72;;;;;;;18.09;98.04;101202.41;1731353;81;25732;-78
2022/08/06 10:26:11;;;;;;;4.75;2.17;;;;;;;18.06;97.86;101208.30;1728979;81;28346;-78
2022/08/06 10:28:41;;;;;;;3.72;1.90;;;;;;;18.02;98.00;101212.50;1735971;81;26469;-78
2022/08/06 10:31:12;;;;;;;7.03;2.10;;;;;;;18.03;98.31;101227.70;1743109;80;25823;-78
2022/08/06 10:34:02;;;;;;;4.80;2.15;;;;;;;18.06;98.35;101238.12;1752558;80;26214;-79
2022/08/06 10:36:36;;;;;;;4.07;1.80;;;;;;;18.07;98.14;101238.95;1696883;83;25869;-78
2022/08/06 10:39:04;;;;;;;4.05;1.77;;;;;;;18.06;98.06;101233.21;1715779;81;28249;-78
2022/08/06 10:41:31;;;;;;;4.80;2.10;;;;;;;18.08;98.24;101221.10;1724569;81;25890;-78
2022/08/06 10:43:58;;;;;;;2.02;1.57;;;;;;;18.09;98.12;101224.10;1732004;81;25831;-78
2022/08/06 10:46:25;;;;;;;4.92;1.87;;;;;;;18.13;98.20;101220.45;1740113;81;26404;-77
2022/08/06 10:48:54;;;;;;;3.37;1.75;;;;;;;18.15;98.24;101220.53;1740956;81;25803;-80
2022/08/06 10:51:21;;;;;;;4.70;2.20;;;;;;;18.17;98.14;101220.30;1737828;81;28312;-79
2022/08/06 10:53:48;;;;;;;5.72;1.85;;;;;;;18.19;98.45;101215.48;1693585;81;26044;-78
2022/08/06 10:56:17;;;;;;;2.95;2.20;;;;;;;18.24;98.69;101230.03;1751600;81;26411;-78
2022/08/06 10:58:45;;;;;;;1.95;1.65;;;;;;;18.27;98.42;101232.31;1720707;82;26576;-77
2022/08/06 11:01:48;;;;;;;3.20;2.37;;;;;;;18.23;98.26;101232.45;1718896;82;25816;-78
2022/08/06 11:04:43;;;;;;;3.58;2.00;;;;;;;18.23;98.26;101232.97;1739039;80;28298;-79
2022/08/06 11:07:27;;;;;;;5.60;2.42;;;;;;;18.25;98.54;101234.41;1731048;80;25798;-79
2022/08/06 11:10:08;;;;;;;5.30;2.65;;;;;;;18.30;98.84;101243.25;1731317;80;25307;-79
2022/08/06 11:12:52;;;;;;;3.45;2.12;;;;;;;18.33;98.84;101240.08;1707207;81;25966;-78
2022/08/06 11:15:19;;;;;;;4.92;2.55;;;;;;;18.35;99.03;101237.45;1729493;81;25943;-78
2022/08/06 11:17:54;;;;;;;8.25;3.10;;;;;;;18.41;99.09;101237.91;1740916;81;27449;-77
2022/08/06 11:20:36;;;;;;;5.42;2.60;;;;;;;18.43;98.70;101243.94;1739108;81;26411;-79
2022/08/06 11:23:07;;;;;;;5.47;2.80;;;;;;;18.46;98.75;101239.99;1719728;82;25318;-79
2022/08/06 11:25:43;;;;;;;3.85;2.85;;;;;;;18.44;98.51;101250.23;1731654;81;25823;-79
2022/08/06 11:28:18;;;;;;;3.77;3.02;;;;;;;18.45;98.86;101252.72;1732652;81;25923;-79
2022/08/06 11:30:48;;;;;;;7.92;3.12;;;;;;;18.45;98.86;101255.43;1720188;81;27451;-78
2022/08/06 11:33:22;;;;;;;6.70;3.17;;;;;;;18.46;98.65;101243.55;1727385;81;26069;-77
2022/08/06 11:35:50;;;;;;;11.70;3.50;;;;;;;18.48;98.57;101221.09;1717827;81;25835;-78
2022/08/06 11:38:46;;;;;;;6.62;3.37;;;;;;;18.53;98.66;101223.66;1746605;80;26506;-79
2022/08/06 11:41:25;;;;;;;6.08;3.58;;;;;;;18.56;98.82;101233.55;1725220;80;26555;-79